< < Back
Terminal Aerodrome Forecast


Current Version              Previous Versions:   1  2  3  4  5  6  7  8  9  

Terminal Aerodrome Forecast

840
FTUS44 KBMX 301700
TAFTCL
TAF
KTCL 301734Z 3018/3118 36012KT P6SM SKC
     FM310000 01003KT P6SM SCT250
     FM311400 09003KT P6SM BKN250=



Latest METAR

030
SAUS70 KWBC 311600
MTRTCL
METAR KTCL 311553Z 05007KT 10SM CLR 07/M05 A3041 RMK AO2 SLP297
T00671050


USA.gov is the U.S. government's official web portal to all federal, state and local government web resources and services.